Juniata, Iowa
Current Conditions -  °F | °C
As of 6:35 PM on Monday 24 Nov 2014 (Local Time) from KSLB Reporting Station
Overcast Overcast  
Wind Chill:   Ceiling: 2200
Heat Index: 23°   Visibility: 10mi
Dew Point: 14°   Wind: 23mph
Humidity: 68%   Direction: 320°NW
Pressure: 29.87"   Gusts: 35mph
Location:  42.674°N, 95.1635°W
Report Text: KSLB 250035Z AUTO 32020G30KT 10SM OVC022 M05/M10 A2987 RMK AO2
Loading
Personal Weather Stations






























Interactive Weather Map New forecast layout! Learn more

10-Day Weather Forecast

Advertisements
Track Severe Weather on mobile